createdAt,value
2023-02-24T00:00:33.126Z,47.42
2023-02-24T00:05:55.009Z,41.10
2023-02-24T00:11:18.553Z,39.10
2023-02-24T00:16:40.706Z,41.40
2023-02-24T00:22:04.761Z,40.83
2023-02-24T00:27:26.700Z,40.28
2023-02-24T00:32:48.654Z,37.45
2023-02-24T00:38:10.642Z,41.85
2023-02-24T00:43:32.497Z,42.35
2023-02-24T00:48:54.627Z,39.40
2023-02-24T00:54:17.451Z,45.47
2023-02-24T00:59:39.930Z,43.78
2023-02-24T01:05:02.451Z,42.50
2023-02-24T01:10:24.283Z,45.78
2023-02-24T01:15:46.148Z,47.10
2023-02-24T01:21:08.012Z,43.33
2023-02-24T01:26:30.007Z,44.67
2023-02-24T01:31:52.609Z,45.50
2023-02-24T01:37:14.618Z,43.70
2023-02-24T01:42:36.517Z,46.25
2023-02-24T01:48:02.944Z,44.08
2023-02-24T01:53:24.979Z,46.35
2023-02-24T01:58:47.142Z,48.28
2023-02-24T02:04:29.127Z,43.95
2023-02-24T02:09:52.215Z,43.80
2023-02-24T02:15:18.165Z,45.47
2023-02-24T02:21:01.793Z,46.70
2023-02-24T02:26:45.127Z,50.25
2023-02-24T02:32:25.874Z,48.33
2023-02-24T02:37:54.963Z,44.33
2023-02-24T02:43:35.187Z,48.13
2023-02-24T02:48:59.287Z,49.30
2023-02-24T02:54:40.580Z,44.63
2023-02-24T03:00:27.870Z,48.80
2023-02-24T03:05:55.655Z,47.97
2023-02-24T03:11:20.437Z,46.55
2023-02-24T03:16:45.854Z,46.78
2023-02-24T03:22:13.093Z,45.85
2023-02-24T03:27:59.581Z,47.42
2023-02-24T03:33:35.660Z,49.05
2023-02-24T03:38:58.647Z,46.92
2023-02-24T03:44:20.580Z,45.70
2023-02-24T03:49:42.450Z,44.72
2023-02-24T03:55:45.633Z,52.15
2023-02-24T04:01:22.274Z,50.58
2023-02-24T04:06:56.105Z,49.60
2023-02-24T04:12:46.004Z,46.40
2023-02-24T04:18:21.625Z,44.90
2023-02-24T04:23:45.025Z,52.23
2023-02-24T04:29:09.180Z,50.63
2023-02-24T04:34:31.222Z,52.03
2023-02-24T04:39:53.081Z,49.35
2023-02-24T04:45:14.977Z,54.22
2023-02-24T04:50:37.647Z,48.05
2023-02-24T04:56:03.634Z,49.22
2023-02-24T05:01:25.518Z,50.25
2023-02-24T05:06:47.402Z,52.78
2023-02-24T05:12:09.239Z,51.40
2023-02-24T05:17:31.149Z,54.88
2023-02-24T05:22:53.035Z,54.92
2023-02-24T05:28:15.022Z,56.33
2023-02-24T05:33:38.326Z,53.60
2023-02-24T05:39:00.834Z,56.60
2023-02-24T05:44:24.267Z,60.63
2023-02-24T05:49:46.113Z,59.65
2023-02-24T05:55:08.322Z,61.30
2023-02-24T06:00:30.182Z,55.42
2023-02-24T06:05:55.085Z,59.00
2023-02-24T06:11:19.635Z,58.67
2023-02-24T06:16:42.662Z,58.95
2023-02-24T06:22:04.593Z,55.45
2023-02-24T06:27:26.605Z,55.47
2023-02-24T06:32:49.342Z,58.38
2023-02-24T06:38:11.310Z,55.47
2023-02-24T06:43:33.481Z,54.83
2023-02-24T06:48:55.681Z,54.10
2023-02-24T06:54:17.537Z,50.50
2023-02-24T06:59:39.365Z,47.88
2023-02-24T07:05:01.233Z,51.55
2023-02-24T07:10:23.075Z,43.97
2023-02-24T07:15:44.919Z,46.60
2023-02-24T07:21:07.655Z,45.30
2023-02-24T07:26:29.515Z,44.63
2023-02-24T07:31:51.571Z,44.50
2023-02-24T07:37:13.668Z,44.40
2023-02-24T07:42:35.590Z,46.15
2023-02-24T07:47:57.458Z,44.72
2023-02-24T07:53:19.319Z,39.97
2023-02-24T07:58:41.386Z,40.78
2023-02-24T08:04:03.332Z,37.78
2023-02-24T08:09:27.966Z,35.05
2023-02-24T08:14:52.615Z,32.42
2023-02-24T08:20:15.568Z,30.38
2023-02-24T08:25:37.519Z,34.97
2023-02-24T08:31:02.782Z,29.80
2023-02-24T08:36:24.833Z,30.65
2023-02-24T08:41:46.677Z,30.98
2023-02-24T08:47:08.537Z,33.15
2023-02-24T08:52:32.261Z,34.40
2023-02-24T08:57:54.341Z,35.63
2023-02-24T09:03:18.275Z,36.30
2023-02-24T09:08:40.690Z,31.73
2023-02-24T09:14:02.638Z,29.92
2023-02-24T09:19:24.561Z,30.27
2023-02-24T09:24:46.471Z,33.42
2023-02-24T09:30:13.022Z,34.22
2023-02-24T09:40:58.561Z,32.97
2023-02-24T09:46:21.687Z,28.95
2023-02-24T09:51:44.760Z,35.30
2023-02-24T09:57:15.846Z,31.52
2023-02-24T10:02:42.012Z,31.20
2023-02-24T10:08:15.729Z,37.90
2023-02-24T10:13:54.331Z,25.77
2023-02-24T10:19:32.338Z,24.88
2023-02-24T10:25:21.259Z,21.75
2023-02-24T10:31:03.674Z,23.27
2023-02-24T10:36:26.496Z,20.45
2023-02-24T10:41:51.812Z,18.00
2023-02-24T10:47:13.795Z,16.45
2023-02-24T10:52:37.338Z,19.27
2023-02-24T10:58:04.347Z,17.50
2023-02-24T11:03:32.658Z,15.32
2023-02-24T11:08:58.634Z,15.40
2023-02-24T11:14:20.900Z,14.27
2023-02-24T11:19:54.575Z,16.40
2023-02-24T11:25:27.007Z,12.00
2023-02-24T11:31:10.441Z,14.00
2023-02-24T11:36:40.770Z,13.20
2023-02-24T11:42:08.543Z,11.10
2023-02-24T11:47:45.244Z,11.68
2023-02-24T11:53:22.815Z,12.65
2023-02-24T11:59:04.323Z,13.98
2023-02-24T12:04:35.265Z,12.70
2023-02-24T12:10:17.831Z,12.57
2023-02-24T12:16:00.926Z,14.48
2023-02-24T12:21:25.938Z,16.08
2023-02-24T12:27:18.582Z,13.82
2023-02-24T12:32:52.964Z,16.80
2023-02-24T12:38:47.822Z,13.27
2023-02-24T12:44:23.581Z,14.98
2023-02-24T12:50:07.034Z,14.27
2023-02-24T12:55:51.686Z,15.73
2023-02-24T13:01:24.554Z,15.70
2023-02-24T13:06:58.561Z,15.30
2023-02-24T13:12:31.206Z,13.57
2023-02-24T13:17:57.690Z,12.77
2023-02-24T13:23:22.062Z,13.02
2023-02-24T13:28:44.140Z,11.20
2023-02-24T13:34:28.824Z,13.98
2023-02-24T13:39:50.691Z,11.60
2023-02-24T13:45:20.213Z,13.43
2023-02-24T13:51:03.878Z,13.93
2023-02-24T13:56:44.420Z,13.38
2023-02-24T14:02:14.980Z,13.60
2023-02-24T14:07:39.389Z,14.52
2023-02-24T14:13:14.066Z,16.40
2023-02-24T14:18:36.038Z,14.60
2023-02-24T14:24:10.801Z,19.45
2023-02-24T14:29:43.617Z,16.45
2023-02-24T14:35:06.580Z,16.05
2023-02-24T14:40:29.182Z,18.20
2023-02-24T14:45:53.159Z,20.38
2023-02-24T14:51:31.050Z,17.98
2023-02-24T14:56:53.093Z,20.95
2023-02-24T15:02:20.474Z,16.75
2023-02-24T15:07:44.777Z,15.88
2023-02-24T15:13:23.309Z,16.90
2023-02-24T15:18:50.230Z,16.42
2023-02-24T15:24:34.113Z,16.25
2023-02-24T15:30:24.873Z,18.05
2023-02-24T15:35:58.827Z,18.73
2023-02-24T15:41:20.711Z,17.50
2023-02-24T15:46:42.863Z,20.33
2023-02-24T15:52:09.939Z,15.45
2023-02-24T15:57:32.794Z,15.77
2023-02-24T16:02:54.687Z,15.07
2023-02-24T16:08:19.365Z,17.25
2023-02-24T16:13:47.337Z,15.93
2023-02-24T16:19:14.142Z,15.52
2023-02-24T16:24:35.982Z,14.38
2023-02-24T16:29:58.566Z,12.05
2023-02-24T16:35:20.396Z,10.82
2023-02-24T16:40:45.428Z,13.63
2023-02-24T16:46:13.894Z,12.15
2023-02-24T16:51:36.032Z,12.35
2023-02-24T16:56:58.151Z,11.20
2023-02-24T17:02:24.706Z,12.68
2023-02-24T17:13:17.868Z,15.70
2023-02-24T17:18:39.804Z,11.25
2023-02-24T17:24:01.689Z,15.90
2023-02-24T17:29:23.521Z,13.73
2023-02-24T17:34:45.342Z,12.25
2023-02-24T17:40:08.231Z,12.98
2023-02-24T17:45:30.071Z,10.10
2023-02-24T17:50:51.980Z,11.40
2023-02-24T17:56:13.823Z,12.50
2023-02-24T18:01:35.662Z,13.57
2023-02-24T18:06:57.487Z,10.18
2023-02-24T18:12:20.197Z,15.25
2023-02-24T18:17:42.083Z,11.18
2023-02-24T18:23:03.952Z,22.73
2023-02-24T18:28:25.808Z,12.18
2023-02-24T18:33:48.335Z,14.60
2023-02-24T18:39:10.413Z,15.90
2023-02-24T18:44:32.379Z,11.52
2023-02-24T18:49:54.332Z,20.05
2023-02-24T18:55:16.362Z,15.50
2023-02-24T19:00:38.601Z,13.57
2023-02-24T19:06:00.541Z,10.95
2023-02-24T19:11:22.409Z,13.00
2023-02-24T19:16:45.300Z,16.70
2023-02-24T19:22:07.220Z,21.15
2023-02-24T19:27:29.109Z,12.77
2023-02-24T19:32:51.128Z,14.52
2023-02-24T19:38:18.329Z,14.32
2023-02-24T19:43:40.254Z,15.55
2023-02-24T19:49:03.164Z,17.42
2023-02-24T19:54:25.300Z,19.70
2023-02-24T19:59:49.928Z,18.83
2023-02-24T20:05:11.866Z,19.70
2023-02-24T20:10:33.713Z,19.55
2023-02-24T20:16:13.180Z,23.77
2023-02-24T20:21:36.080Z,20.77
2023-02-24T20:26:57.917Z,29.92
2023-02-24T20:32:19.812Z,23.50
2023-02-24T20:37:41.720Z,25.40
2023-02-24T20:43:05.731Z,22.52
2023-02-24T20:48:27.551Z,26.25
2023-02-24T20:53:57.227Z,28.15
2023-02-24T20:59:21.156Z,32.22
2023-02-24T21:04:42.991Z,33.95
2023-02-24T21:10:05.414Z,28.55
2023-02-24T21:15:27.387Z,29.52
2023-02-24T21:20:53.119Z,26.67
2023-02-24T21:26:15.228Z,23.10
2023-02-24T21:31:37.122Z,27.45
2023-02-24T21:36:59.080Z,28.33
2023-02-24T21:42:20.989Z,30.35
2023-02-24T21:47:43.232Z,29.67
2023-02-24T21:53:05.138Z,24.10
2023-02-24T21:58:26.971Z,29.95
2023-02-24T22:03:48.988Z,23.67
2023-02-24T22:09:12.055Z,23.77
2023-02-24T22:14:33.888Z,24.40
2023-02-24T22:19:55.734Z,23.23
2023-02-24T22:25:17.629Z,23.17
2023-02-24T22:30:39.478Z,25.35
2023-02-24T22:36:06.820Z,25.85
2023-02-24T22:41:32.195Z,29.60
2023-02-24T22:46:54.106Z,35.17
2023-02-24T22:52:15.943Z,36.10
2023-02-24T22:57:37.797Z,31.13
2023-02-24T23:02:59.665Z,33.00
2023-02-24T23:08:21.958Z,28.45
2023-02-24T23:13:45.687Z,27.02
2023-02-24T23:19:13.523Z,29.65
2023-02-24T23:24:35.395Z,26.95
2023-02-24T23:29:57.234Z,26.15
2023-02-24T23:35:19.057Z,27.52
2023-02-24T23:40:49.910Z,27.52
2023-02-24T23:46:13.221Z,24.75
2023-02-24T23:51:47.541Z,24.45
2023-02-24T23:57:10.185Z,23.67
